createdAt,value
2018-06-01T00:01:07.189Z,15.67
2018-06-01T00:03:33.432Z,17.20
2018-06-01T00:05:59.675Z,17.93
2018-06-01T00:08:25.978Z,19.67
2018-06-01T00:10:52.224Z,17.90
2018-06-01T00:13:18.469Z,18.50
2018-06-01T00:15:44.738Z,14.50
2018-06-01T00:18:10.983Z,13.43
2018-06-01T00:20:37.218Z,14.30
2018-06-01T00:23:03.505Z,14.97
2018-06-01T00:25:29.751Z,15.67
2018-06-01T00:27:55.990Z,13.07
2018-06-01T00:30:22.266Z,13.20
2018-06-01T00:32:48.507Z,13.23
2018-06-01T00:35:14.755Z,12.70
2018-06-01T00:37:41.051Z,12.03
2018-06-01T00:40:07.301Z,14.17
2018-06-01T00:42:33.547Z,12.17
2018-06-01T00:44:59.919Z,15.83
2018-06-01T00:47:26.160Z,14.20
2018-06-01T00:49:52.403Z,13.43
2018-06-01T00:52:18.678Z,16.70
2018-06-01T00:54:57.074Z,16.00
2018-06-01T00:57:23.346Z,13.20
2018-06-01T00:59:49.588Z,17.87
2018-06-01T01:02:15.846Z,13.83
2018-06-01T01:04:42.119Z,15.63
2018-06-01T01:07:08.383Z,14.70
2018-06-01T01:09:34.624Z,16.70
2018-06-01T01:12:00.938Z,16.60
2018-06-01T01:14:27.223Z,16.07
2018-06-01T01:16:53.507Z,14.37
2018-06-01T01:19:19.781Z,15.37
2018-06-01T01:21:46.047Z,14.30
2018-06-01T01:24:12.291Z,16.13
2018-06-01T01:26:38.566Z,15.30
2018-06-01T01:29:04.847Z,14.93
2018-06-01T01:31:31.124Z,14.17
2018-06-01T01:33:57.390Z,15.50
2018-06-01T01:36:23.659Z,13.03
2018-06-01T01:38:49.947Z,15.07
2018-06-01T01:41:16.222Z,13.30
2018-06-01T01:43:42.507Z,14.23
2018-06-01T01:46:08.771Z,14.60
2018-06-01T01:48:35.047Z,13.50
2018-06-01T01:51:01.312Z,14.60
2018-06-01T01:53:27.554Z,14.43
2018-06-01T01:55:53.832Z,13.87
2018-06-01T01:58:20.071Z,16.27
2018-06-01T02:00:46.303Z,14.23
2018-06-01T02:03:12.581Z,14.63
2018-06-01T02:05:38.823Z,15.40
2018-06-01T02:08:05.092Z,17.57
2018-06-01T02:10:31.407Z,14.80
2018-06-01T02:12:57.647Z,16.20
2018-06-01T02:15:23.887Z,17.17
2018-06-01T02:17:50.159Z,15.47
2018-06-01T02:20:16.457Z,16.27
2018-06-01T02:22:42.670Z,19.97
2018-06-01T02:25:08.987Z,18.30
2018-06-01T02:27:35.231Z,17.40
2018-06-01T02:30:01.485Z,19.27
2018-06-01T02:32:27.876Z,20.00
2018-06-01T02:34:54.127Z,18.67
2018-06-01T02:37:20.395Z,22.50
2018-06-01T02:39:46.721Z,24.57
2018-06-01T02:42:12.986Z,20.37
2018-06-01T02:44:39.230Z,18.77
2018-06-01T02:47:05.516Z,16.97
2018-06-01T02:49:31.836Z,19.77
2018-06-01T02:51:58.038Z,16.37
2018-06-01T02:54:24.313Z,18.83
2018-06-01T02:56:50.554Z,16.00
2018-06-01T02:59:16.778Z,17.80
2018-06-01T03:01:43.051Z,18.07
2018-06-01T03:04:09.302Z,15.27
2018-06-01T03:06:47.810Z,16.57
2018-06-01T03:09:14.046Z,15.63
2018-06-01T03:11:40.287Z,14.80
2018-06-01T03:14:06.536Z,15.93
2018-06-01T03:16:32.805Z,16.33
2018-06-01T03:18:59.046Z,15.47
2018-06-01T03:21:25.303Z,17.27
2018-06-01T03:23:51.551Z,15.80
2018-06-01T03:26:17.813Z,15.23
2018-06-01T03:28:44.094Z,16.77
2018-06-01T03:31:10.319Z,16.00
2018-06-01T03:33:36.550Z,16.60
2018-06-01T03:36:02.827Z,14.77
2018-06-01T03:38:29.082Z,15.87
2018-06-01T03:40:55.348Z,18.17
2018-06-01T03:43:21.623Z,16.67
2018-06-01T03:45:47.915Z,17.27
2018-06-01T03:48:14.180Z,17.87
2018-06-01T03:50:40.444Z,18.27
2018-06-01T03:53:06.698Z,15.83
2018-06-01T03:55:32.950Z,17.67
2018-06-01T03:57:59.231Z,16.97
2018-06-01T04:00:25.483Z,15.97
2018-06-01T04:02:51.754Z,16.33
2018-06-01T04:05:18.002Z,22.67
2018-06-01T04:07:44.242Z,18.17
2018-06-01T04:10:10.470Z,14.70
2018-06-01T04:12:36.726Z,15.40
2018-06-01T04:15:03.001Z,17.33
2018-06-01T04:17:29.303Z,15.67
2018-06-01T04:19:55.583Z,15.33
2018-06-01T04:22:21.827Z,14.40
2018-06-01T04:24:48.112Z,16.00
2018-06-01T04:27:14.377Z,16.77
2018-06-01T04:29:40.630Z,16.93
2018-06-01T04:32:06.904Z,17.57
2018-06-01T04:34:33.169Z,17.53
2018-06-01T04:36:59.438Z,20.00
2018-06-01T04:39:25.700Z,21.63
2018-06-01T04:41:52.252Z,22.03
2018-06-01T04:44:18.483Z,20.10
2018-06-01T04:46:44.724Z,19.73
2018-06-01T04:49:11.022Z,20.03
2018-06-01T04:51:37.227Z,17.30
2018-06-01T04:54:03.483Z,23.07
2018-06-01T04:56:29.743Z,22.83
2018-06-01T04:58:55.970Z,16.87
2018-06-01T05:01:22.222Z,17.40
2018-06-01T05:03:48.514Z,18.43
2018-06-01T05:06:14.767Z,19.70
2018-06-01T05:08:41.316Z,18.93
2018-06-01T05:11:07.638Z,15.27
2018-06-01T05:13:33.867Z,16.23
2018-06-01T05:16:00.098Z,16.73
2018-06-01T05:18:26.355Z,14.43
2018-06-01T05:20:52.602Z,14.90
2018-06-01T05:23:18.835Z,15.37
2018-06-01T05:25:45.091Z,17.87
2018-06-01T05:28:11.323Z,21.90
2018-06-01T05:30:37.559Z,14.60
2018-06-01T05:33:03.822Z,17.83
2018-06-01T05:35:30.090Z,15.57
2018-06-01T05:37:56.337Z,13.40
2018-06-01T05:40:22.606Z,12.03
2018-06-01T05:42:48.874Z,14.77
2018-06-01T05:45:15.109Z,19.43
2018-06-01T05:47:41.379Z,11.80
2018-06-01T05:50:07.614Z,11.17
2018-06-01T05:52:33.846Z,12.97
2018-06-01T05:55:00.103Z,10.10
2018-06-01T05:57:26.342Z,9.50
2018-06-01T05:59:52.594Z,13.93
2018-06-01T06:02:18.886Z,9.00
2018-06-01T06:04:45.110Z,8.27
2018-06-01T06:07:11.338Z,8.53
2018-06-01T06:09:37.595Z,8.20
2018-06-01T06:12:03.828Z,8.20
2018-06-01T06:14:30.063Z,8.77
2018-06-01T06:16:56.339Z,7.00
2018-06-01T06:19:22.564Z,7.63
2018-06-01T06:21:48.808Z,9.50
2018-06-01T06:24:15.055Z,8.27
2018-06-01T06:26:41.290Z,12.13
2018-06-01T06:29:07.519Z,6.40
2018-06-01T06:31:33.779Z,6.70
2018-06-01T06:34:00.032Z,6.63
2018-06-01T06:36:26.250Z,7.33
2018-06-01T06:38:52.523Z,8.53
2018-06-01T06:41:18.747Z,7.47
2018-06-01T06:43:44.976Z,6.67
2018-06-01T06:46:11.231Z,7.83
2018-06-01T06:48:37.451Z,6.50
2018-06-01T06:51:03.717Z,6.23
2018-06-01T06:53:29.962Z,7.00
2018-06-01T06:55:56.178Z,6.50
2018-06-01T06:58:22.419Z,7.77
2018-06-01T07:00:48.673Z,11.07
2018-06-01T07:03:16.081Z,5.87
2018-06-01T07:05:42.308Z,5.15
2018-06-01T07:08:08.594Z,6.15
2018-06-01T07:10:34.881Z,7.35
2018-06-01T07:13:01.105Z,10.02
2018-06-01T07:15:27.353Z,12.30
2018-06-01T07:17:53.567Z,6.35
2018-06-01T07:20:19.821Z,6.30
2018-06-01T07:22:46.064Z,8.38
2018-06-01T07:25:12.291Z,6.85
2018-06-01T07:27:38.561Z,6.57
2018-06-01T07:30:04.823Z,5.37
2018-06-01T07:32:31.031Z,8.60
2018-06-01T07:34:57.259Z,5.93
2018-06-01T07:37:23.518Z,5.28
2018-06-01T07:39:49.739Z,5.45
2018-06-01T07:42:15.962Z,6.00
2018-06-01T07:44:42.234Z,6.87
2018-06-01T07:47:08.454Z,6.93
2018-06-01T07:49:34.699Z,6.07
2018-06-01T07:52:00.951Z,5.70
2018-06-01T07:54:27.203Z,7.78
2018-06-01T07:56:53.431Z,4.57
2018-06-01T07:59:19.688Z,7.60
2018-06-01T08:01:45.917Z,6.97
2018-06-01T08:04:12.179Z,7.37
2018-06-01T08:06:38.426Z,4.95
2018-06-01T08:09:04.686Z,6.93
2018-06-01T08:11:30.930Z,5.25
2018-06-01T08:13:57.178Z,5.12
2018-06-01T08:16:23.407Z,5.57
2018-06-01T08:18:49.650Z,6.43
2018-06-01T08:21:15.898Z,9.82
2018-06-01T08:23:42.126Z,5.87
2018-06-01T08:26:08.338Z,5.10
2018-06-01T08:28:34.610Z,8.48
2018-06-01T08:31:00.834Z,6.60
2018-06-01T08:33:27.058Z,5.82
2018-06-01T08:35:53.306Z,5.32
2018-06-01T08:38:19.527Z,9.10
2018-06-01T08:40:45.747Z,6.10
2018-06-01T08:43:12.026Z,8.25
2018-06-01T08:45:38.267Z,7.32
2018-06-01T08:48:04.523Z,5.53
2018-06-01T08:50:30.786Z,6.30
2018-06-01T08:52:57.027Z,5.30
2018-06-01T08:55:23.263Z,6.85
2018-06-01T08:57:49.531Z,6.05
2018-06-01T09:00:15.787Z,5.47
2018-06-01T09:02:42.023Z,8.60
2018-06-01T09:05:08.278Z,6.62
2018-06-01T09:07:34.499Z,6.18
2018-06-01T09:10:00.777Z,5.28
2018-06-01T09:12:26.992Z,5.80
2018-06-01T09:14:53.223Z,5.65
2018-06-01T09:17:19.442Z,6.32
2018-06-01T09:19:45.687Z,7.20
2018-06-01T09:22:11.968Z,5.72
2018-06-01T09:24:38.175Z,5.05
2018-06-01T09:27:04.434Z,5.75
2018-06-01T09:29:30.650Z,5.37
2018-06-01T09:31:56.874Z,6.32
2018-06-01T09:34:23.136Z,5.60
2018-06-01T09:36:49.379Z,6.32
2018-06-01T09:39:15.619Z,5.57
2018-06-01T09:41:41.858Z,5.30
2018-06-01T09:44:08.079Z,6.07
2018-06-01T09:46:34.312Z,5.65
2018-06-01T09:49:00.576Z,5.37
2018-06-01T09:51:26.822Z,5.20
2018-06-01T09:53:53.061Z,4.75
2018-06-01T09:56:19.334Z,7.05
2018-06-01T09:58:45.557Z,6.37
2018-06-01T10:01:11.811Z,4.85
2018-06-01T10:03:38.066Z,5.40
2018-06-01T10:06:04.321Z,4.93
2018-06-01T10:08:30.610Z,5.22
2018-06-01T10:10:56.902Z,9.27
2018-06-01T10:13:23.142Z,5.70
2018-06-01T10:15:49.378Z,5.20
2018-06-01T10:18:15.635Z,5.18
2018-06-01T10:20:41.901Z,5.43
2018-06-01T10:23:08.143Z,5.43
2018-06-01T10:25:34.398Z,5.30
2018-06-01T10:28:00.674Z,6.00
2018-06-01T10:30:26.911Z,5.93
2018-06-01T10:32:53.203Z,5.28
2018-06-01T10:35:19.434Z,4.95
2018-06-01T10:37:45.653Z,4.80
2018-06-01T10:40:11.931Z,7.70
2018-06-01T10:42:38.146Z,7.20
2018-06-01T10:45:04.378Z,6.18
2018-06-01T10:47:30.662Z,4.68
2018-06-01T10:49:56.907Z,4.87
2018-06-01T10:52:23.122Z,4.18
2018-06-01T10:54:49.374Z,4.93
2018-06-01T10:57:15.598Z,7.20
2018-06-01T10:59:41.814Z,5.15
2018-06-01T11:02:08.084Z,3.85
2018-06-01T11:04:34.311Z,3.97
2018-06-01T11:07:00.560Z,3.97
2018-06-01T11:09:26.811Z,3.75
2018-06-01T11:11:53.034Z,4.07
2018-06-01T11:14:19.488Z,7.10
2018-06-01T11:16:45.744Z,4.78
2018-06-01T11:19:11.969Z,5.53
2018-06-01T11:21:38.255Z,4.35
2018-06-01T11:24:04.524Z,4.03
2018-06-01T11:26:30.756Z,4.03
2018-06-01T11:28:56.999Z,4.03
2018-06-01T11:31:23.306Z,3.90
2018-06-01T11:33:49.528Z,4.22
2018-06-01T11:36:15.755Z,3.70
2018-06-01T11:38:42.014Z,3.85
2018-06-01T11:41:08.238Z,3.70
2018-06-01T11:43:34.462Z,3.62
2018-06-01T11:46:00.714Z,3.95
2018-06-01T11:48:26.962Z,3.70
2018-06-01T11:50:53.210Z,3.30
2018-06-01T11:53:19.471Z,4.93
2018-06-01T11:55:45.698Z,3.33
2018-06-01T11:58:11.955Z,3.65
2018-06-01T12:00:38.223Z,5.28
2018-06-01T12:03:04.443Z,5.20
2018-06-01T12:05:30.662Z,3.08
2018-06-01T12:07:56.943Z,4.30
2018-06-01T12:10:23.175Z,3.67
2018-06-01T12:12:49.399Z,4.72
2018-06-01T12:15:15.667Z,4.87
2018-06-01T12:17:42.005Z,2.80
2018-06-01T12:20:08.156Z,5.20
2018-06-01T12:22:34.422Z,3.42
2018-06-01T12:25:00.668Z,4.15
2018-06-01T12:27:26.902Z,3.92
2018-06-01T12:29:53.180Z,3.45
2018-06-01T12:32:19.411Z,8.45
2018-06-01T12:34:45.640Z,3.87
2018-06-01T12:37:11.894Z,3.83
2018-06-01T12:39:38.147Z,4.10
2018-06-01T12:42:04.389Z,4.70
2018-06-01T12:44:30.642Z,3.87
2018-06-01T12:46:56.866Z,3.50
2018-06-01T12:49:23.087Z,4.07
2018-06-01T12:51:49.346Z,3.40
2018-06-01T12:54:15.562Z,5.25
2018-06-01T12:56:41.791Z,3.67
2018-06-01T12:59:08.041Z,3.70
2018-06-01T13:01:34.270Z,3.00
2018-06-01T13:04:00.493Z,3.55
2018-06-01T13:06:26.759Z,3.55
2018-06-01T13:08:53.001Z,2.87
2018-06-01T13:11:19.242Z,3.42
2018-06-01T13:13:45.494Z,4.12
2018-06-01T13:16:11.742Z,3.22
2018-06-01T13:18:37.999Z,3.37
2018-06-01T13:21:04.299Z,3.30
2018-06-01T13:23:31.096Z,4.20
2018-06-01T13:25:57.314Z,4.90
2018-06-01T13:28:23.589Z,3.53
2018-06-01T13:30:49.822Z,3.37
2018-06-01T13:33:16.046Z,3.00
2018-06-01T13:35:42.330Z,2.30
2018-06-01T13:38:08.583Z,2.92
2018-06-01T13:40:34.810Z,5.40
2018-06-01T13:43:02.033Z,2.92
2018-06-01T13:45:28.431Z,2.40
2018-06-01T13:47:54.671Z,8.55
2018-06-01T13:50:21.067Z,4.40
2018-06-01T13:52:47.381Z,2.37
2018-06-01T13:55:13.630Z,3.47
2018-06-01T13:57:39.887Z,2.45
2018-06-01T14:00:06.214Z,2.70
2018-06-01T14:02:32.528Z,2.40
2018-06-01T14:04:58.794Z,5.03
2018-06-01T14:07:25.287Z,2.35
2018-06-01T14:09:51.516Z,2.65
2018-06-01T14:12:17.850Z,3.15
2018-06-01T14:14:44.093Z,5.10
2018-06-01T14:17:10.516Z,3.85
2018-06-01T14:19:36.790Z,2.30
2018-06-01T14:22:03.033Z,3.72
2018-06-01T14:24:29.284Z,2.45
2018-06-01T14:26:55.893Z,2.28
2018-06-01T14:29:22.139Z,2.37
2018-06-01T14:31:48.571Z,2.28
2018-06-01T14:34:14.905Z,6.22
2018-06-01T14:36:41.150Z,2.47
2018-06-01T14:39:07.394Z,2.10
2018-06-01T14:41:34.112Z,2.20
2018-06-01T14:44:00.594Z,3.65
2018-06-01T14:46:26.863Z,1.85
2018-06-01T14:48:53.529Z,4.62
2018-06-01T14:51:19.749Z,2.35
2018-06-01T14:53:46.070Z,7.30
2018-06-01T14:56:12.327Z,3.17
2018-06-01T14:58:38.679Z,2.58
2018-06-01T15:01:04.923Z,2.58
2018-06-01T15:03:31.317Z,2.40
2018-06-01T15:05:57.601Z,2.40
2018-06-01T15:08:24.053Z,1.85
2018-06-01T15:10:51.338Z,2.10
2018-06-01T15:13:17.566Z,4.80
2018-06-01T15:15:43.952Z,3.85
2018-06-01T15:18:10.386Z,2.00
2018-06-01T15:20:36.622Z,5.82
2018-06-01T15:23:03.004Z,4.28
2018-06-01T15:25:29.294Z,2.47
2018-06-01T15:27:55.527Z,2.12
2018-06-01T15:30:23.711Z,6.05
2018-06-01T15:32:49.970Z,3.05
2018-06-01T15:35:16.217Z,2.30
2018-06-01T15:37:42.433Z,2.83
2018-06-01T15:40:08.678Z,4.53
2018-06-01T15:42:34.894Z,3.67
2018-06-01T15:45:01.124Z,3.28
2018-06-01T15:47:27.381Z,4.82
2018-06-01T15:49:53.594Z,3.90
2018-06-01T15:52:19.818Z,3.28
2018-06-01T15:54:46.070Z,3.92
2018-06-01T15:57:12.302Z,2.08
2018-06-01T15:59:38.519Z,2.20
2018-06-01T16:02:04.843Z,2.17
2018-06-01T16:04:31.059Z,2.67
2018-06-01T16:06:57.291Z,2.33
2018-06-01T16:09:23.562Z,2.28
2018-06-01T16:11:49.818Z,2.58
2018-06-01T16:14:16.071Z,5.00
2018-06-01T16:16:42.348Z,3.95
2018-06-01T16:19:08.584Z,2.03
2018-06-01T16:21:34.982Z,2.10
2018-06-01T16:24:01.259Z,2.58
2018-06-01T16:26:27.575Z,2.45
2018-06-01T16:28:53.884Z,2.35
2018-06-01T16:31:20.184Z,3.67
2018-06-01T16:33:46.499Z,4.90
2018-06-01T16:36:12.727Z,2.50
2018-06-01T16:38:39.172Z,3.83
2018-06-01T16:41:05.430Z,4.93
2018-06-01T16:43:31.702Z,2.70
2018-06-01T16:45:57.982Z,3.53
2018-06-01T16:48:24.475Z,6.60
2018-06-01T16:50:50.741Z,3.85
2018-06-01T16:53:16.999Z,3.70
2018-06-01T16:55:43.407Z,4.93
2018-06-01T16:58:09.719Z,4.00
2018-06-01T17:00:35.978Z,3.17
2018-06-01T17:03:02.239Z,3.75
2018-06-01T17:05:28.463Z,3.90
2018-06-01T17:07:54.725Z,4.95
2018-06-01T17:10:20.946Z,5.47
2018-06-01T17:12:47.202Z,4.93
2018-06-01T17:15:13.471Z,6.07
2018-06-01T17:17:39.812Z,3.33
2018-06-01T17:20:06.224Z,5.18
2018-06-01T17:22:32.623Z,3.47
2018-06-01T17:24:58.928Z,3.50
2018-06-01T17:27:25.226Z,2.92
2018-06-01T17:29:51.597Z,3.30
2018-06-01T17:32:17.866Z,3.45
2018-06-01T17:34:44.122Z,4.32
2018-06-01T17:37:10.392Z,7.53
2018-06-01T17:39:36.657Z,3.70
2018-06-01T17:42:02.925Z,4.10
2018-06-01T17:44:29.192Z,5.87
2018-06-01T17:46:55.467Z,5.63
2018-06-01T17:49:21.754Z,2.80
2018-06-01T17:51:48.129Z,4.65
2018-06-01T17:54:14.447Z,4.33
2018-06-01T17:56:40.689Z,3.50
2018-06-01T17:59:07.024Z,5.47
2018-06-01T18:01:33.272Z,4.05
2018-06-01T18:03:59.562Z,7.93
2018-06-01T18:06:25.866Z,5.60
2018-06-01T18:08:52.231Z,3.30
2018-06-01T18:11:18.581Z,4.13
2018-06-01T18:13:44.927Z,3.55
2018-06-01T18:16:11.182Z,3.30
2018-06-01T18:18:37.487Z,4.53
2018-06-01T18:21:03.770Z,4.05
2018-06-01T18:23:30.015Z,4.65
2018-06-01T18:25:56.289Z,6.70
2018-06-01T18:28:22.554Z,7.57
2018-06-01T18:30:48.798Z,5.00
2018-06-01T18:33:15.055Z,7.50
2018-06-01T18:35:41.329Z,3.27
2018-06-01T18:38:07.578Z,2.70
2018-06-01T18:40:33.802Z,4.27
2018-06-01T18:43:00.069Z,3.77
2018-06-01T18:45:26.340Z,3.13
2018-06-01T18:47:52.611Z,5.03
2018-06-01T18:50:18.887Z,3.00
2018-06-01T18:52:45.149Z,3.10
2018-06-01T18:55:11.390Z,3.57
2018-06-01T18:57:37.802Z,3.87
2018-06-01T19:00:04.113Z,2.63
2018-06-01T19:02:30.356Z,2.47
2018-06-01T19:04:56.655Z,2.40
2018-06-01T19:07:22.898Z,4.57
2018-06-01T19:09:49.167Z,3.70
2018-06-01T19:12:15.441Z,3.07
2018-06-01T19:14:41.707Z,2.80
2018-06-01T19:17:07.934Z,2.90
2018-06-01T19:19:34.211Z,3.13
2018-06-01T19:22:00.643Z,3.40
2018-06-01T19:24:26.874Z,3.90
2018-06-01T19:26:53.303Z,5.27
2018-06-01T19:29:19.534Z,3.50
2018-06-01T19:31:45.791Z,5.60
2018-06-01T19:34:12.051Z,2.73
2018-06-01T19:36:38.287Z,3.07
2018-06-01T19:39:04.589Z,4.03
2018-06-01T19:41:30.865Z,3.23
2018-06-01T19:43:57.119Z,2.83
2018-06-01T19:46:23.412Z,3.13
2018-06-01T19:48:49.671Z,4.10
2018-06-01T19:51:15.966Z,4.87
2018-06-01T19:53:42.194Z,4.40
2018-06-01T19:56:08.488Z,4.03
2018-06-01T19:58:34.779Z,5.70
2018-06-01T20:01:01.014Z,3.43
2018-06-01T20:03:27.283Z,3.40
2018-06-01T20:05:53.524Z,5.00
2018-06-01T20:08:19.883Z,3.63
2018-06-01T20:10:46.147Z,3.83
2018-06-01T20:13:12.435Z,3.30
2018-06-01T20:15:38.690Z,4.87
2018-06-01T20:18:04.984Z,3.70
2018-06-01T20:20:31.219Z,6.57
2018-06-01T20:22:57.475Z,3.87
2018-06-01T20:25:23.795Z,4.97
2018-06-01T20:27:50.060Z,3.17
2018-06-01T20:30:16.328Z,3.97
2018-06-01T20:32:42.586Z,25.50
2018-06-01T20:35:08.830Z,5.03
2018-06-01T20:37:35.081Z,3.27
2018-06-01T20:40:01.347Z,5.73
2018-06-01T20:42:27.682Z,4.50
2018-06-01T20:44:54.002Z,4.67
2018-06-01T20:47:20.334Z,5.97
2018-06-01T20:49:46.566Z,4.20
2018-06-01T20:52:12.820Z,4.30
2018-06-01T20:54:39.154Z,3.57
2018-06-01T20:57:05.427Z,4.40
2018-06-01T20:59:32.755Z,4.97
2018-06-01T21:01:59.456Z,3.83
2018-06-01T21:04:26.123Z,3.40
2018-06-01T21:06:52.403Z,5.17
2018-06-01T21:09:18.885Z,4.33
2018-06-01T21:11:45.154Z,4.33
2018-06-01T21:14:11.666Z,4.73
2018-06-01T21:16:38.040Z,3.23
2018-06-01T21:19:04.355Z,3.20
2018-06-01T21:21:30.594Z,4.50
2018-06-01T21:23:56.884Z,3.47
2018-06-01T21:26:23.187Z,3.47
2018-06-01T21:28:49.435Z,4.07
2018-06-01T21:31:15.743Z,6.00
2018-06-01T21:33:41.978Z,6.83
2018-06-01T21:36:08.235Z,3.17
2018-06-01T21:38:34.501Z,3.87
2018-06-01T21:41:00.827Z,4.27
2018-06-01T21:43:27.088Z,3.60
2018-06-01T21:45:53.368Z,3.60
2018-06-01T21:48:19.611Z,4.00
2018-06-01T21:50:45.863Z,3.73
2018-06-01T21:53:12.187Z,3.67
2018-06-01T21:55:38.436Z,3.57
2018-06-01T21:58:04.711Z,3.60
2018-06-01T22:00:31.026Z,5.20
2018-06-01T22:02:57.291Z,3.40
2018-06-01T22:05:23.554Z,4.10
2018-06-01T22:07:49.875Z,5.00
2018-06-01T22:10:16.135Z,3.83
2018-06-01T22:12:42.411Z,4.00
2018-06-01T22:15:08.687Z,5.70
2018-06-01T22:17:34.964Z,3.17
2018-06-01T22:20:01.295Z,3.93
2018-06-01T22:22:27.604Z,3.83
2018-06-01T22:24:53.842Z,3.87
2018-06-01T22:27:20.107Z,3.80
2018-06-01T22:29:46.372Z,4.23
2018-06-01T22:32:12.632Z,5.30
2018-06-01T22:34:40.577Z,5.67
2018-06-01T22:37:06.861Z,4.23
2018-06-01T22:39:33.572Z,7.57
2018-06-01T22:41:59.831Z,4.50
2018-06-01T22:44:26.173Z,3.87
2018-06-01T22:46:52.418Z,3.97
2018-06-01T22:49:18.664Z,4.10
2018-06-01T22:51:44.941Z,4.43
2018-06-01T22:54:11.187Z,4.33
2018-06-01T22:56:37.478Z,4.43
2018-06-01T22:59:03.798Z,4.47
2018-06-01T23:01:30.059Z,4.80
2018-06-01T23:03:56.322Z,4.63
2018-06-01T23:06:22.587Z,4.70
2018-06-01T23:08:48.854Z,4.63
2018-06-01T23:11:15.091Z,5.00
2018-06-01T23:13:41.362Z,5.67
2018-06-01T23:16:07.627Z,6.40
2018-06-01T23:18:33.872Z,4.40
2018-06-01T23:21:00.147Z,4.70
2018-06-01T23:23:26.399Z,4.07
2018-06-01T23:25:52.646Z,4.57
2018-06-01T23:28:18.910Z,3.97
2018-06-01T23:30:45.164Z,4.60
2018-06-01T23:33:11.424Z,4.37
2018-06-01T23:35:37.743Z,6.30
2018-06-01T23:38:03.987Z,4.63
2018-06-01T23:40:30.236Z,4.33
2018-06-01T23:42:56.578Z,6.00
2018-06-01T23:45:22.857Z,4.17
2018-06-01T23:47:49.097Z,4.73
2018-06-01T23:50:15.375Z,5.97
2018-06-01T23:52:41.635Z,4.77
2018-06-01T23:55:07.876Z,4.67
2018-06-01T23:57:34.165Z,4.73
